Mascote, Brazil
Current Conditions -  °F | °C
As of 1:00 PM on Friday 28 Nov 2014 (Local Time) from SBIL Reporting Station
Few Clouds Few Clouds  
Wind Chill: 82°   Ceiling: Unl
Heat Index: 88°   Visibility: 6mi
Dew Point: 73°   Wind: 10mph
Humidity: 74%   Direction: 40°NE
Pressure: 29.94"   Gusts: NA
Location:  15.56°S, 39.3°W
Report Text: SBIL 281600Z 04009KT 9999 FEW020 28/23 Q1014
Loading
Personal Weather Stations






























Interactive Weather Map New forecast layout! Learn more

10-Day Weather Forecast

Advertisements
Track Severe Weather on mobile